Time;durP1;ratioP1;P1;durP2;ratioP2;P2;SDS_P1;SDS_P2;PMS_P1;PMS_P2;Temp;Humidity;BMP_temperature;BMP_pressure;BME280_temperature;BME280_humidity;BME280_pressure;Samples;Min_cycle;Max_cycle;Signal;HPM_P1;HPM_P2
2022/09/20 05:00:14;;;;;;;4.13;2.20;;;11.10;97.20;;;;;;1720758;28;20177;-72
2022/09/20 05:01:54;;;;;;;3.85;2.10;;;11.10;97.20;;;;;;1720618;28;20205;-72
2022/09/20 05:03:21;;;;;;;3.83;2.03;;;11.10;97.20;;;;;;1713730;28;20253;-74
2022/09/20 05:04:56;;;;;;;4.45;2.10;;;11.10;97.20;;;;;;1713775;28;20544;-73
2022/09/20 05:06:18;;;;;;;4.25;2.40;;;11.10;97.20;;;;;;1717060;28;20197;-73
2022/09/20 05:07:45;;;;;;;4.70;2.10;;;11.10;97.20;;;;;;1716463;28;20577;-73
2022/09/20 05:09:09;;;;;;;2.83;1.90;;;11.10;97.20;;;;;;1713572;28;20286;-73
2022/09/20 05:10:26;;;;;;;4.78;2.30;;;11.10;97.20;;;;;;1712703;28;20208;-73
2022/09/20 05:11:48;;;;;;;4.40;2.33;;;11.10;97.20;;;;;;1717756;28;20569;-73
2022/09/20 05:12:59;;;;;;;4.72;2.20;;;11.10;97.20;;;;;;1720329;28;20202;-73
2022/09/20 05:14:16;;;;;;;5.35;2.38;;;11.20;97.20;;;;;;1720277;28;20201;-73
2022/09/20 05:15:25;;;;;;;6.00;2.08;;;11.10;97.20;;;;;;1721555;28;20259;-73
2022/09/20 05:16:23;;;;;;;3.30;2.17;;;11.10;97.20;;;;;;1719151;28;20288;-73
2022/09/20 05:17:24;;;;;;;2.85;1.80;;;11.10;97.20;;;;;;1718175;28;20664;-73
2022/09/20 05:18:52;;;;;;;3.85;1.90;;;11.10;97.20;;;;;;1718195;28;20668;-73
2022/09/20 05:20:02;;;;;;;3.53;2.03;;;11.10;97.20;;;;;;1713699;28;20687;-73
2022/09/20 05:21:13;;;;;;;4.95;2.17;;;11.10;97.20;;;;;;1716713;28;20226;-73
2022/09/20 05:22:52;;;;;;;3.58;1.92;;;11.10;97.20;;;;;;1714967;28;20605;-75
2022/09/20 05:23:55;;;;;;;3.58;2.03;;;11.10;97.20;;;;;;1715095;28;20214;-73
2022/09/20 05:25:03;;;;;;;4.50;2.47;;;11.10;97.20;;;;;;1715120;28;20290;-72
2022/09/20 05:26:07;;;;;;;5.95;2.53;;;11.10;97.20;;;;;;1714929;28;20323;-73
2022/09/20 05:27:12;;;;;;;3.88;2.10;;;11.10;97.20;;;;;;1716025;28;20276;-74
2022/09/20 05:28:09;;;;;;;4.43;1.98;;;11.10;97.20;;;;;;1715019;28;20300;-73
2022/09/20 05:29:05;;;;;;;3.15;2.15;;;11.10;97.20;;;;;;1714829;28;20233;-73
2022/09/20 05:30:02;;;;;;;2.20;1.92;;;11.10;97.20;;;;;;1721218;28;20655;-72
2022/09/20 05:30:59;;;;;;;4.80;3.00;;;11.10;97.20;;;;;;1715048;28;20668;-73
2022/09/20 05:31:55;;;;;;;3.17;2.30;;;11.10;97.20;;;;;;1715020;28;20672;-73
2022/09/20 05:32:57;;;;;;;4.88;2.45;;;11.10;97.20;;;;;;1715221;28;20325;-75
2022/09/20 05:33:56;;;;;;;6.80;2.50;;;11.10;97.20;;;;;;1718260;28;20698;-74
2022/09/20 05:34:56;;;;;;;7.15;2.55;;;11.10;97.20;;;;;;1721529;28;20308;-74
2022/09/20 05:35:59;;;;;;;7.10;2.65;;;11.10;97.20;;;;;;1715023;28;20219;-74
2022/09/20 05:37:01;;;;;;;3.42;2.20;;;11.10;97.20;;;;;;1715049;28;20205;-75
2022/09/20 05:38:00;;;;;;;3.70;2.22;;;11.10;97.20;;;;;;1715775;28;20213;-74
2022/09/20 05:39:00;;;;;;;4.28;2.40;;;11.10;97.20;;;;;;1714950;28;20198;-75
2022/09/20 05:39:56;;;;;;;5.85;2.53;;;11.10;97.20;;;;;;1715006;28;20206;-74
2022/09/20 05:41:04;;;;;;;8.00;2.63;;;11.20;97.20;;;;;;1719361;28;20247;-75
2022/09/20 05:41:58;;;;;;;4.38;2.58;;;11.20;97.20;;;;;;1714982;28;20359;-75
2022/09/20 05:42:54;;;;;;;3.72;2.20;;;11.20;97.20;;;;;;1718424;28;20200;-75
2022/09/20 05:43:52;;;;;;;3.03;2.28;;;11.20;97.20;;;;;;1721735;28;20216;-74
2022/09/20 05:44:56;;;;;;;4.90;2.60;;;11.20;97.20;;;;;;1721853;28;20656;-75
2022/09/20 05:45:57;;;;;;;4.22;2.38;;;11.10;97.20;;;;;;1722788;28;20200;-75
2022/09/20 05:46:58;;;;;;;7.90;2.72;;;11.10;97.20;;;;;;1725304;28;20657;-75
2022/09/20 05:47:55;;;;;;;4.05;2.25;;;11.10;97.20;;;;;;1721580;28;20205;-75
2022/09/20 05:48:56;;;;;;;3.58;2.35;;;11.20;97.20;;;;;;1721674;28;20217;-75
2022/09/20 05:49:57;;;;;;;4.53;2.15;;;11.20;97.20;;;;;;1721692;28;20252;-75
2022/09/20 05:50:57;;;;;;;3.30;2.70;;;11.20;97.20;;;;;;1724000;28;20228;-75
2022/09/20 05:52:06;;;;;;;4.15;2.25;;;11.20;97.20;;;;;;1721676;28;20212;-74
2022/09/20 05:53:03;;;;;;;3.55;2.45;;;11.20;97.20;;;;;;1721622;28;20209;-75
2022/09/20 05:54:28;;;;;;;4.45;2.45;;;11.20;97.20;;;;;;1721654;28;20584;-75
2022/09/20 05:55:51;;;;;;;3.65;2.42;;;11.20;97.20;;;;;;1721747;28;20201;-74
2022/09/20 05:56:51;;;;;;;2.83;2.38;;;11.20;97.20;;;;;;1700696;29;20203;-74
2022/09/20 05:58:03;;;;;;;3.58;2.58;;;11.20;97.20;;;;;;1700527;29;20282;-74
2022/09/20 05:59:04;;;;;;;4.38;2.30;;;11.20;97.20;;;;;;1718362;28;20225;-73
2022/09/20 06:00:03;;;;;;;3.50;2.50;;;11.20;97.20;;;;;;1714925;28;20202;-76
2022/09/20 06:01:00;;;;;;;4.68;2.50;;;11.20;97.20;;;;;;1721565;28;20236;-73
2022/09/20 06:02:10;;;;;;;5.05;2.90;;;11.20;97.20;;;;;;1721688;28;20205;-75
2022/09/20 06:03:09;;;;;;;4.75;2.88;;;11.20;97.20;;;;;;1721662;28;20205;-74
2022/09/20 06:04:11;;;;;;;5.47;2.75;;;11.20;97.20;;;;;;1721641;28;20315;-75
2022/09/20 06:05:11;;;;;;;3.30;2.22;;;11.20;97.20;;;;;;1721287;28;20205;-74
2022/09/20 06:06:09;;;;;;;8.27;3.30;;;11.20;97.20;;;;;;1714929;28;20202;-75
2022/09/20 06:07:08;;;;;;;5.60;3.00;;;11.20;97.20;;;;;;1714767;28;20284;-75
2022/09/20 06:08:17;;;;;;;8.05;3.92;;;11.20;97.20;;;;;;1714706;28;20205;-75
2022/09/20 06:09:34;;;;;;;5.25;2.67;;;11.30;97.20;;;;;;1714876;28;20617;-76
2022/09/20 06:10:38;;;;;;;4.03;3.10;;;11.30;97.20;;;;;;1715026;28;20235;-73
2022/09/20 06:11:55;;;;;;;7.07;3.05;;;11.30;97.20;;;;;;1714786;28;20712;-74
2022/09/20 06:12:53;;;;;;;4.22;3.13;;;11.30;97.20;;;;;;1720290;28;20208;-74
2022/09/20 06:14:03;;;;;;;6.80;3.30;;;11.30;97.20;;;;;;1721492;28;20229;-74
2022/09/20 06:15:02;;;;;;;4.32;2.70;;;11.30;97.20;;;;;;1714726;28;20665;-75
2022/09/20 06:15:58;;;;;;;4.05;2.78;;;11.40;97.20;;;;;;1716201;28;20680;-74
2022/09/20 06:16:58;;;;;;;4.97;3.50;;;11.40;97.20;;;;;;1720304;28;20197;-75
2022/09/20 06:17:59;;;;;;;5.70;3.30;;;11.40;97.20;;;;;;1721172;28;20260;-75
2022/09/20 06:18:58;;;;;;;6.47;3.72;;;11.40;97.20;;;;;;1714680;28;20256;-74
2022/09/20 06:20:00;;;;;;;5.75;3.13;;;11.40;97.20;;;;;;1714796;28;20205;-73
2022/09/20 06:20:59;;;;;;;4.13;3.05;;;11.40;97.20;;;;;;1720741;28;20224;-74
2022/09/20 06:21:53;;;;;;;5.32;3.33;;;11.50;97.20;;;;;;1721577;28;20212;-74
2022/09/20 06:22:47;;;;;;;7.60;3.63;;;11.50;97.20;;;;;;1719790;28;20201;-75
2022/09/20 06:23:39;;;;;;;6.10;3.20;;;11.50;97.20;;;;;;1721482;28;20197;-74
2022/09/20 06:24:36;;;;;;;5.63;3.47;;;11.50;97.20;;;;;;1721358;28;20224;-74
2022/09/20 06:25:34;;;;;;;5.93;3.20;;;11.50;97.20;;;;;;1721543;28;20985;-74
2022/09/20 06:26:29;;;;;;;9.30;3.60;;;11.50;97.20;;;;;;1721442;28;20545;-74
2022/09/20 06:27:26;;;;;;;4.85;3.53;;;11.60;97.20;;;;;;1721218;28;20201;-75
2022/09/20 06:28:18;;;;;;;7.43;3.72;;;11.60;97.20;;;;;;1721534;28;20205;-74
2022/09/20 06:29:13;;;;;;;4.78;3.67;;;11.60;97.20;;;;;;1721280;28;20201;-75
2022/09/20 06:30:13;;;;;;;4.38;3.33;;;11.60;97.20;;;;;;1721539;28;20216;-74
2022/09/20 06:31:10;;;;;;;4.45;3.72;;;11.60;97.20;;;;;;1721649;28;20720;-74
2022/09/20 06:32:01;;;;;;;6.30;3.80;;;11.60;97.20;;;;;;1721351;28;20233;-74
2022/09/20 06:32:55;;;;;;;6.85;3.40;;;11.60;97.20;;;;;;1721534;28;20216;-74
2022/09/20 06:33:52;;;;;;;10.38;4.38;;;11.60;97.20;;;;;;1721465;28;20236;-73
2022/09/20 06:34:44;;;;;;;3.88;3.20;;;11.70;97.20;;;;;;1718497;28;20237;-74
2022/09/20 06:35:40;;;;;;;4.88;3.22;;;11.70;97.20;;;;;;1714731;28;20577;-74
2022/09/20 06:41:43;;;;;;;4.20;3.20;;;11.80;97.20;;;;;;1714782;28;20628;-73
2022/09/20 06:42:34;;;;;;;7.60;2.70;;;11.90;97.20;;;;;;1714805;28;20201;-74
2022/09/20 06:43:29;;;;;;;4.60;3.03;;;11.90;97.20;;;;;;1714576;28;20201;-74
2022/09/20 06:44:20;;;;;;;4.00;2.72;;;11.90;97.20;;;;;;1714349;28;20256;-74
2022/09/20 06:45:12;;;;;;;3.93;2.87;;;12.00;97.20;;;;;;1714271;28;20198;-74
2022/09/20 06:46:03;;;;;;;5.00;2.70;;;12.00;97.20;;;;;;1714626;28;20220;-74
2022/09/20 06:46:54;;;;;;;5.43;2.80;;;12.00;97.20;;;;;;1714543;28;20281;-74
2022/09/20 06:47:45;;;;;;;3.22;2.78;;;12.00;97.20;;;;;;1714398;28;20206;-73
2022/09/20 06:48:39;;;;;;;6.10;2.77;;;12.10;97.20;;;;;;1715820;28;20202;-74
2022/09/20 06:49:29;;;;;;;5.60;2.70;;;12.10;97.20;;;;;;1717082;28;20827;-73
2022/09/20 06:50:21;;;;;;;5.27;2.80;;;12.10;97.20;;;;;;1714624;28;20206;-73
2022/09/20 06:51:12;;;;;;;5.28;2.90;;;12.20;97.20;;;;;;1714563;28;20206;-74
2022/09/20 06:52:05;;;;;;;24.60;3.73;;;12.20;97.20;;;;;;1714640;28;20229;-73
2022/09/20 06:52:56;;;;;;;6.20;3.50;;;12.20;97.20;;;;;;1714523;28;20217;-73
2022/09/20 06:53:48;;;;;;;4.83;3.20;;;12.20;97.20;;;;;;1714641;28;20216;-74
2022/09/20 06:54:44;;;;;;;5.82;2.75;;;12.20;97.20;;;;;;1714568;28;20401;-73
2022/09/20 06:55:39;;;;;;;5.85;2.92;;;12.20;97.20;;;;;;1714615;28;20579;-73
2022/09/20 06:56:33;;;;;;;5.82;3.28;;;12.30;97.20;;;;;;1714615;28;20293;-74
2022/09/20 06:57:33;;;;;;;4.80;3.00;;;12.30;97.20;;;;;;1714315;28;20209;-74
2022/09/20 06:58:25;;;;;;;8.90;2.90;;;12.30;97.20;;;;;;1714543;28;20579;-74
2022/09/20 06:59:17;;;;;;;4.78;3.03;;;12.30;97.20;;;;;;1714481;28;20615;-73
2022/09/20 07:00:13;;;;;;;6.28;3.40;;;12.30;97.20;;;;;;1714941;28;20205;-74
2022/09/20 07:01:05;;;;;;;5.38;3.20;;;12.30;97.20;;;;;;1721332;28;20275;-74
2022/09/20 07:01:56;;;;;;;4.45;3.00;;;12.40;97.20;;;;;;1719165;28;20228;-73
2022/09/20 07:02:48;;;;;;;4.43;2.83;;;12.40;97.20;;;;;;1716921;28;20197;-74
2022/09/20 07:03:40;;;;;;;5.80;3.17;;;12.40;97.20;;;;;;1718256;28;20846;-74
2022/09/20 07:04:33;;;;;;;8.77;3.35;;;12.40;97.20;;;;;;1717950;28;20193;-74
2022/09/20 07:05:25;;;;;;;4.15;2.80;;;12.50;97.20;;;;;;1719251;28;20300;-74
2022/09/20 07:06:18;;;;;;;5.10;3.75;;;12.50;97.20;;;;;;1720942;28;20660;-74
2022/09/20 07:07:16;;;;;;;5.85;3.25;;;12.50;97.20;;;;;;1720475;28;20209;-75
2022/09/20 07:08:08;;;;;;;3.88;3.25;;;12.50;97.20;;;;;;1721170;28;20805;-73
2022/09/20 07:08:58;;;;;;;4.22;3.20;;;12.60;97.20;;;;;;1720906;28;20201;-74
2022/09/20 07:09:50;;;;;;;10.23;3.60;;;12.60;97.20;;;;;;1721071;28;20201;-73
2022/09/20 07:10:42;;;;;;;6.05;3.45;;;12.60;97.20;;;;;;1720934;28;20228;-74
2022/09/20 07:11:34;;;;;;;5.18;3.33;;;12.70;97.20;;;;;;1721119;28;20656;-73
2022/09/20 07:12:28;;;;;;;4.38;3.00;;;12.70;97.20;;;;;;1721007;28;20676;-73
2022/09/20 07:13:20;;;;;;;6.50;3.40;;;12.70;97.20;;;;;;1721004;28;20297;-73
2022/09/20 07:14:11;;;;;;;7.22;3.50;;;12.70;97.20;;;;;;1720586;28;20578;-73
2022/09/20 07:15:02;;;;;;;5.33;3.53;;;12.80;97.20;;;;;;1721011;28;20285;-73
2022/09/20 07:15:59;;;;;;;5.03;3.50;;;12.80;97.20;;;;;;1720949;28;20448;-73
2022/09/20 07:16:51;;;;;;;6.90;3.38;;;12.80;97.20;;;;;;1720788;28;20206;-73
2022/09/20 07:17:43;;;;;;;8.10;3.30;;;12.80;97.20;;;;;;1720633;28;20204;-73
2022/09/20 07:18:35;;;;;;;6.43;3.60;;;12.90;97.20;;;;;;1720889;28;20201;-73
2022/09/20 07:19:27;;;;;;;6.88;3.47;;;12.90;97.20;;;;;;1721046;28;20207;-73
2022/09/20 07:20:19;;;;;;;9.88;3.40;;;12.90;97.20;;;;;;1720903;28;20259;-73
2022/09/20 07:21:11;;;;;;;4.65;3.00;;;13.00;97.20;;;;;;1720840;28;20212;-74
2022/09/20 07:22:03;;;;;;;7.80;3.10;;;13.00;97.20;;;;;;1720839;28;20288;-74
2022/09/20 07:22:54;;;;;;;6.85;3.30;;;13.00;97.20;;;;;;1722550;28;20231;-73
2022/09/20 07:23:47;;;;;;;7.60;3.33;;;13.10;97.20;;;;;;1718362;28;20205;-73
2022/09/20 07:24:40;;;;;;;7.00;4.15;;;13.10;97.20;;;;;;1716967;28;20812;-74
2022/09/20 07:25:32;;;;;;;5.65;3.55;;;13.20;97.20;;;;;;1716991;28;20193;-74
2022/09/20 07:26:26;;;;;;;6.72;3.78;;;13.20;97.20;;;;;;1718333;28;20256;-73
2022/09/20 07:27:20;;;;;;;10.60;4.10;;;13.30;97.20;;;;;;1716432;28;20189;-73
2022/09/20 07:28:10;;;;;;;6.45;3.63;;;13.30;97.20;;;;;;1713695;28;20284;-73
2022/09/20 07:29:02;;;;;;;5.70;3.33;;;13.40;97.20;;;;;;1717993;28;20198;-73
2022/09/20 07:29:53;;;;;;;6.35;3.72;;;13.40;97.20;;;;;;1717809;28;20233;-73
2022/09/20 07:30:45;;;;;;;6.47;3.40;;;13.40;97.20;;;;;;1717902;28;20651;-73
2022/09/20 07:31:36;;;;;;;9.20;4.18;;;13.50;97.20;;;;;;1715454;28;20194;-74
2022/09/20 07:32:29;;;;;;;9.20;3.80;;;13.50;97.20;;;;;;1718023;28;20198;-73
2022/09/20 07:33:20;;;;;;;6.00;3.70;;;13.60;97.20;;;;;;1716915;28;20216;-75
2022/09/20 07:34:12;;;;;;;12.80;4.10;;;13.60;97.20;;;;;;1716850;28;20203;-75
2022/09/20 07:35:06;;;;;;;5.70;3.28;;;13.70;97.20;;;;;;1716998;28;20208;-72
2022/09/20 07:35:58;;;;;;;9.98;4.38;;;13.70;97.20;;;;;;1717574;28;20621;-74
2022/09/20 07:36:50;;;;;;;7.32;4.03;;;13.70;97.20;;;;;;1718025;28;20202;-74
2022/09/20 07:37:42;;;;;;;5.00;3.38;;;13.80;97.20;;;;;;1716342;28;20225;-74
2022/09/20 07:38:33;;;;;;;8.07;4.03;;;13.80;97.20;;;;;;1716682;28;20198;-74
2022/09/20 07:39:25;;;;;;;8.40;3.67;;;13.80;97.20;;;;;;1718138;28;20186;-73
2022/09/20 07:40:18;;;;;;;6.75;3.53;;;13.90;97.20;;;;;;1717258;28;20452;-74
2022/09/20 07:41:10;;;;;;;9.90;3.10;;;13.90;97.20;;;;;;1716759;28;20653;-74
2022/09/20 07:42:05;;;;;;;8.05;3.55;;;14.00;97.20;;;;;;1718107;28;20260;-74
2022/09/20 07:42:57;;;;;;;6.80;3.55;;;14.00;97.20;;;;;;1717489;28;20269;-73
2022/09/20 07:43:49;;;;;;;8.80;3.28;;;14.00;97.20;;;;;;1716261;28;20251;-73
2022/09/20 07:44:41;;;;;;;4.38;2.95;;;14.00;97.20;;;;;;1717715;28;20640;-74
2022/09/20 07:45:34;;;;;;;5.43;2.92;;;14.10;97.20;;;;;;1715043;28;20213;-74
2022/09/20 07:46:25;;;;;;;10.07;2.88;;;14.10;97.20;;;;;;1718054;28;20322;-74
2022/09/20 07:47:17;;;;;;;5.90;3.10;;;14.10;97.20;;;;;;1716764;28;20648;-74
2022/09/20 07:48:08;;;;;;;5.97;2.90;;;14.10;97.20;;;;;;1716738;28;20453;-74
2022/09/20 07:49:00;;;;;;;5.50;2.85;;;14.00;97.20;;;;;;1717498;28;20201;-74
2022/09/20 07:49:51;;;;;;;6.22;3.10;;;14.00;97.20;;;;;;1718113;28;20193;-75
2022/09/20 07:50:52;;;;;;;4.65;3.72;;;14.00;97.20;;;;;;1716737;28;20292;-75
2022/09/20 07:51:43;;;;;;;6.35;2.78;;;14.00;97.20;;;;;;1716910;28;20331;-75
2022/09/20 07:52:35;;;;;;;7.10;2.72;;;14.00;97.20;;;;;;1716821;28;20244;-73
2022/09/20 07:53:26;;;;;;;7.45;3.50;;;14.00;97.20;;;;;;1718143;28;20194;-73
2022/09/20 07:54:19;;;;;;;8.05;3.10;;;14.00;97.20;;;;;;1717126;28;20284;-74
2022/09/20 07:55:10;;;;;;;6.72;2.88;;;14.00;97.20;;;;;;1716863;28;20676;-76
2022/09/20 07:56:05;;;;;;;9.57;2.90;;;14.00;97.20;;;;;;1718054;28;20256;-74
2022/09/20 07:56:57;;;;;;;7.50;3.97;;;14.00;97.20;;;;;;1717148;28;20590;-76
2022/09/20 07:57:50;;;;;;;7.43;2.90;;;14.00;97.20;;;;;;1716129;28;20224;-74
2022/09/20 07:58:42;;;;;;;9.10;3.47;;;14.00;97.20;;;;;;1717689;28;20194;-74
2022/09/20 07:59:33;;;;;;;6.70;2.80;;;14.10;97.20;;;;;;1717849;28;20668;-75
2022/09/20 08:00:25;;;;;;;8.55;3.03;;;14.10;97.20;;;;;;1715971;28;20207;-74
2022/09/20 08:01:18;;;;;;;7.28;3.00;;;14.10;97.20;;;;;;1716624;28;20222;-74
2022/09/20 08:02:13;;;;;;;6.72;2.80;;;14.10;97.20;;;;;;1716533;28;20227;-74
2022/09/20 08:03:05;;;;;;;5.70;3.03;;;14.20;97.20;;;;;;1716705;28;20197;-75
2022/09/20 08:03:56;;;;;;;5.22;2.72;;;14.20;97.20;;;;;;1717079;28;20258;-75
2022/09/20 08:04:49;;;;;;;5.88;2.55;;;14.20;97.20;;;;;;1717531;28;20197;-74
2022/09/20 08:05:40;;;;;;;8.50;2.75;;;14.20;97.20;;;;;;1716457;28;20201;-74
2022/09/20 08:06:37;;;;;;;5.65;2.33;;;14.30;97.20;;;;;;1716574;28;20197;-73
2022/09/20 08:07:30;;;;;;;9.68;2.88;;;14.30;97.20;;;;;;1716135;28;20186;-73
2022/09/20 08:08:22;;;;;;;7.78;3.25;;;14.30;97.20;;;;;;1717797;28;20241;-72
2022/09/20 08:09:14;;;;;;;7.60;3.45;;;14.30;97.20;;;;;;1717442;28;20204;-73
2022/09/20 08:10:07;;;;;;;6.05;2.22;;;14.30;97.20;;;;;;1716786;28;20675;-73
2022/09/20 08:11:05;;;;;;;7.13;2.55;;;14.30;97.20;;;;;;1717315;28;20229;-71
2022/09/20 08:11:56;;;;;;;5.78;2.75;;;14.30;97.20;;;;;;1707705;28;20201;-73
2022/09/20 08:12:49;;;;;;;6.07;2.13;;;14.30;97.20;;;;;;1712313;28;20470;-71
2022/09/20 08:13:41;;;;;;;6.18;2.95;;;14.30;97.20;;;;;;1716045;28;20819;-72
2022/09/20 08:14:33;;;;;;;5.15;2.20;;;14.30;97.20;;;;;;1718836;28;20692;-73
2022/09/20 08:15:24;;;;;;;6.25;2.53;;;14.30;97.20;;;;;;1719564;28;20209;-73
2022/09/20 08:16:17;;;;;;;4.97;2.55;;;14.40;97.20;;;;;;1720223;28;20197;-72
2022/09/20 08:17:13;;;;;;;5.93;2.72;;;14.40;97.20;;;;;;1713285;28;20582;-72
2022/09/20 08:18:07;;;;;;;8.77;2.65;;;14.50;97.20;;;;;;1719632;28;20585;-73
2022/09/20 08:19:00;;;;;;;10.15;2.42;;;14.50;97.20;;;;;;1720199;28;20209;-73
2022/09/20 08:19:52;;;;;;;10.82;3.67;;;14.60;97.20;;;;;;1720368;28;20656;-72
2022/09/20 08:20:43;;;;;;;9.45;2.85;;;14.60;97.20;;;;;;1720416;28;20228;-72
2022/09/20 08:21:37;;;;;;;5.80;3.03;;;14.70;97.20;;;;;;1720636;28;20235;-73
2022/09/20 08:22:31;;;;;;;6.13;2.65;;;14.80;97.20;;;;;;1719998;28;20343;-73
2022/09/20 08:23:23;;;;;;;7.47;3.17;;;14.90;97.20;;;;;;1719723;28;20193;-72
2022/09/20 08:24:16;;;;;;;5.55;2.00;;;15.00;97.20;;;;;;1719691;28;20209;-72
2022/09/20 08:25:07;;;;;;;7.00;2.70;;;15.00;97.20;;;;;;1720627;28;20577;-72
2022/09/20 08:25:59;;;;;;;4.88;2.28;;;15.10;97.20;;;;;;1720697;28;20532;-72
2022/09/20 08:26:49;;;;;;;4.13;1.63;;;15.10;97.20;;;;;;1720538;28;20208;-72
2022/09/20 08:27:41;;;;;;;8.50;2.20;;;15.10;97.20;;;;;;1720386;28;20207;-72
2022/09/20 08:28:33;;;;;;;4.10;1.85;;;15.10;97.20;;;;;;1720341;28;20971;-73
2022/09/20 08:29:25;;;;;;;4.03;1.50;;;15.10;97.20;;;;;;1720392;28;20785;-72
2022/09/20 08:30:16;;;;;;;6.55;2.10;;;15.10;97.20;;;;;;1719974;28;20240;-73
2022/09/20 08:31:10;;;;;;;4.53;1.80;;;15.10;97.20;;;;;;1719589;28;20197;-72
2022/09/20 08:32:02;;;;;;;7.25;2.13;;;15.10;97.20;;;;;;1720494;28;20683;-73
2022/09/20 08:32:54;;;;;;;6.75;2.00;;;15.10;97.20;;;;;;1720518;28;20581;-72
2022/09/20 08:33:47;;;;;;;5.95;2.47;;;15.10;97.20;;;;;;1719924;28;20197;-72
2022/09/20 08:34:39;;;;;;;7.38;2.30;;;15.10;97.20;;;;;;1719899;28;20216;-72
2022/09/20 08:35:31;;;;;;;6.93;2.00;;;15.10;97.20;;;;;;1720085;28;20197;-72
2022/09/20 08:36:23;;;;;;;7.65;1.90;;;15.10;97.20;;;;;;1720102;28;20201;-72
2022/09/20 08:37:16;;;;;;;4.70;2.20;;;15.10;97.20;;;;;;1719405;28;20612;-72
2022/09/20 08:38:08;;;;;;;6.60;2.33;;;15.10;97.20;;;;;;1720234;28;20208;-72
2022/09/20 08:39:00;;;;;;;7.57;2.33;;;15.10;97.20;;;;;;1720223;28;20200;-73
2022/09/20 08:39:50;;;;;;;4.18;1.70;;;15.10;97.20;;;;;;1720455;28;20344;-72
2022/09/20 08:40:42;;;;;;;5.93;2.07;;;15.00;97.20;;;;;;1720258;28;20340;-72
2022/09/20 08:41:37;;;;;;;4.72;2.10;;;15.00;97.20;;;;;;1720271;28;20676;-72
2022/09/20 08:42:32;;;;;;;5.53;2.00;;;15.00;97.20;;;;;;1720234;28;20575;-72
2022/09/20 08:43:28;;;;;;;7.57;2.30;;;14.90;97.20;;;;;;1720054;28;20687;-73
2022/09/20 08:44:25;;;;;;;7.90;2.65;;;15.00;97.20;;;;;;1720215;28;20666;-72
2022/09/20 08:45:18;;;;;;;10.65;2.10;;;15.00;97.20;;;;;;1724270;28;20649;-73
2022/09/20 08:46:16;;;;;;;3.72;1.90;;;15.00;97.20;;;;;;1727358;28;20200;-73
2022/09/20 08:47:17;;;;;;;6.97;2.25;;;15.10;97.20;;;;;;1723504;28;20296;-72
2022/09/20 08:48:15;;;;;;;6.97;2.03;;;15.10;97.20;;;;;;1720544;28;20213;-72
2022/09/20 08:49:08;;;;;;;4.65;2.72;;;15.20;97.20;;;;;;1719424;28;20271;-72
2022/09/20 08:50:01;;;;;;;5.03;1.90;;;15.30;97.20;;;;;;1720164;28;20205;-73
2022/09/20 08:50:53;;;;;;;5.25;1.50;;;15.40;97.20;;;;;;1720119;28;20283;-72
2022/09/20 08:51:48;;;;;;;6.72;2.90;;;15.40;97.20;;;;;;1720248;28;20212;-72
2022/09/20 08:52:45;;;;;;;4.00;1.65;;;15.50;97.20;;;;;;1720569;28;20197;-72
2022/09/20 08:53:42;;;;;;;5.30;1.85;;;15.50;97.20;;;;;;1720441;28;20221;-73
2022/09/20 08:54:35;;;;;;;4.70;1.50;;;15.50;97.20;;;;;;1720485;28;20205;-72
2022/09/20 08:55:30;;;;;;;6.88;1.88;;;15.50;97.20;;;;;;1719741;28;20275;-72
2022/09/20 08:56:22;;;;;;;5.43;2.13;;;15.50;97.20;;;;;;1720073;28;20205;-73
2022/09/20 08:57:16;;;;;;;7.43;2.00;;;15.50;97.20;;;;;;1719775;28;20201;-72
2022/09/20 08:58:10;;;;;;;5.32;1.63;;;15.50;97.20;;;;;;1720318;28;20622;-72
2022/09/20 08:59:01;;;;;;;3.72;1.60;;;15.50;97.20;;;;;;1720579;28;20591;-72
2022/09/20 08:59:53;;;;;;;7.40;2.07;;;15.60;97.20;;;;;;1720411;28;20193;-73
2022/09/20 09:00:45;;;;;;;6.55;1.90;;;15.60;97.20;;;;;;1720399;28;21005;-73
2022/09/20 09:01:37;;;;;;;3.67;1.95;;;15.70;97.20;;;;;;1720451;28;20672;-72
2022/09/20 09:02:30;;;;;;;4.38;1.48;;;15.70;97.20;;;;;;1720322;28;20613;-72
2022/09/20 09:03:23;;;;;;;7.22;1.85;;;15.80;97.20;;;;;;1719324;28;20543;-73
2022/09/20 09:04:16;;;;;;;7.90;1.88;;;15.90;97.20;;;;;;1713078;28;20205;-72
2022/09/20 09:05:25;;;;;;;4.30;1.80;;;16.00;97.20;;;;;;1713499;28;20241;-72
2022/09/20 09:06:20;;;;;;;6.60;1.90;;;16.10;97.20;;;;;;1713226;28;20712;-72
2022/09/20 09:07:13;;;;;;;6.30;2.38;;;16.10;97.20;;;;;;1712908;28;20213;-73
2022/09/20 09:08:14;;;;;;;4.35;2.00;;;16.20;97.20;;;;;;1715418;28;20253;-72
2022/09/20 09:09:06;;;;;;;5.88;2.08;;;16.20;97.20;;;;;;1720327;28;20209;-72
2022/09/20 09:09:59;;;;;;;4.07;2.00;;;16.20;97.20;;;;;;1720008;28;20830;-72
2022/09/20 09:10:53;;;;;;;5.55;2.17;;;16.20;97.20;;;;;;1719981;28;20650;-72
2022/09/20 09:11:46;;;;;;;6.63;1.45;;;16.20;97.20;;;;;;1719924;28;20199;-72
2022/09/20 09:12:38;;;;;;;5.88;2.67;;;16.30;97.20;;;;;;1720365;28;20205;-72
2022/09/20 09:13:34;;;;;;;6.68;2.03;;;16.20;97.20;;;;;;1720394;28;20688;-72
2022/09/20 09:15:40;;;;;;;7.45;2.10;;;16.20;97.20;;;;;;1720630;28;20679;-72
2022/09/20 09:16:32;;;;;;;3.97;1.70;;;16.20;97.20;;;;;;1720113;28;20205;-72
2022/09/20 09:17:26;;;;;;;2.10;1.40;;;16.20;97.20;;;;;;1719726;28;20285;-73
2022/09/20 09:18:17;;;;;;;3.78;1.58;;;16.20;97.20;;;;;;1720023;28;20208;-72
2022/09/20 09:19:29;;;;;;;6.90;2.07;;;16.10;97.20;;;;;;1720113;28;20212;-72
2022/09/20 09:20:22;;;;;;;6.93;2.00;;;16.10;97.20;;;;;;1716964;28;20527;-73
2022/09/20 09:21:18;;;;;;;8.13;1.70;;;16.10;97.20;;;;;;1713612;28;20202;-72
2022/09/20 09:22:10;;;;;;;3.50;1.45;;;16.00;97.20;;;;;;1713784;28;20205;-72
2022/09/20 09:23:05;;;;;;;5.60;2.17;;;16.00;97.20;;;;;;1713559;28;20290;-72
2022/09/20 09:24:08;;;;;;;6.53;1.75;;;16.00;97.20;;;;;;1713369;28;20213;-72
2022/09/20 09:25:08;;;;;;;5.22;1.60;;;15.90;97.20;;;;;;1713398;28;20206;-72
2022/09/20 09:26:02;;;;;;;3.05;1.60;;;15.90;97.20;;;;;;1713591;28;20669;-73
2022/09/20 09:27:06;;;;;;;4.93;1.98;;;15.90;97.20;;;;;;1713448;28;20213;-75
2022/09/20 09:28:00;;;;;;;4.88;1.73;;;15.90;97.20;;;;;;1713430;28;20552;-71
2022/09/20 09:29:16;;;;;;;6.72;1.80;;;15.90;97.20;;;;;;1713531;28;20198;-71
2022/09/20 09:30:19;;;;;;;3.20;1.70;;;16.00;97.20;;;;;;1713489;28;20220;-73
2022/09/20 09:31:24;;;;;;;4.70;2.10;;;16.10;97.20;;;;;;1713470;28;20206;-73
2022/09/20 09:32:20;;;;;;;3.50;1.48;;;16.30;97.20;;;;;;1713322;28;20218;-74
2022/09/20 09:33:24;;;;;;;6.18;1.77;;;16.40;97.20;;;;;;1713700;28;20268;-73
2022/09/20 09:34:24;;;;;;;3.35;1.25;;;16.50;97.20;;;;;;1713465;28;20708;-74
2022/09/20 09:35:30;;;;;;;3.10;1.77;;;16.60;97.20;;;;;;1713672;28;20585;-73
2022/09/20 09:36:27;;;;;;;5.40;1.90;;;16.60;97.20;;;;;;1713550;28;20210;-74
2022/09/20 09:37:29;;;;;;;3.47;1.60;;;16.60;97.20;;;;;;1718373;28;20214;-73
2022/09/20 09:38:23;;;;;;;4.18;2.10;;;16.60;97.20;;;;;;1719910;28;20201;-74
2022/09/20 09:39:22;;;;;;;3.45;1.63;;;16.70;97.20;;;;;;1720061;28;20209;-73
2022/09/20 09:40:16;;;;;;;3.22;1.85;;;16.70;97.20;;;;;;1720206;28;20660;-73
2022/09/20 09:41:24;;;;;;;3.35;1.77;;;16.80;97.20;;;;;;1720091;28;20209;-73
2022/09/20 09:42:19;;;;;;;6.50;1.70;;;16.80;97.20;;;;;;1720287;28;20209;-73
2022/09/20 09:43:22;;;;;;;2.63;1.90;;;16.80;97.20;;;;;;1720328;28;20205;-73
2022/09/20 09:44:20;;;;;;;7.82;1.88;;;16.80;97.20;;;;;;1720090;28;20206;-74
2022/09/20 09:45:24;;;;;;;4.00;1.70;;;16.90;97.20;;;;;;1719959;28;20204;-73
2022/09/20 09:46:17;;;;;;;5.30;1.80;;;17.10;97.20;;;;;;1720200;28;20241;-74
2022/09/20 09:47:23;;;;;;;7.03;1.70;;;17.20;97.20;;;;;;1720154;28;20216;-74
2022/09/20 09:48:18;;;;;;;5.82;1.83;;;17.30;97.20;;;;;;1720410;28;20217;-73
2022/09/20 09:49:16;;;;;;;6.80;1.80;;;17.40;97.20;;;;;;1720290;28;20201;-74
2022/09/20 09:50:22;;;;;;;4.60;1.60;;;17.50;97.20;;;;;;1720269;28;20288;-75
2022/09/20 09:51:15;;;;;;;5.32;1.55;;;17.60;97.20;;;;;;1720003;28;20209;-73
2022/09/20 09:52:13;;;;;;;6.68;1.80;;;17.70;97.20;;;;;;1719973;28;20201;-73
2022/09/20 09:53:11;;;;;;;5.90;1.55;;;17.80;97.20;;;;;;1719597;28;20753;-74
2022/09/20 09:54:04;;;;;;;3.20;1.58;;;17.90;97.20;;;;;;1713486;28;20693;-74
2022/09/20 09:54:58;;;;;;;4.60;1.60;;;18.10;97.20;;;;;;1713491;28;20256;-73
2022/09/20 09:56:13;;;;;;;3.08;1.40;;;18.20;97.20;;;;;;1713404;28;20244;-74
2022/09/20 09:57:19;;;;;;;5.95;2.00;;;18.40;97.20;;;;;;1713276;28;20201;-74
2022/09/20 09:58:21;;;;;;;5.88;1.67;;;18.60;97.20;;;;;;1713160;28;20215;-73
2022/09/20 09:59:30;;;;;;;2.55;1.35;;;18.70;97.20;;;;;;1713025;28;20214;-73
2022/09/20 10:00:22;;;;;;;5.10;1.42;;;18.90;97.20;;;;;;1713353;28;20345;-73
2022/09/20 10:01:26;;;;;;;3.22;1.58;;;18.90;97.20;;;;;;1713456;28;20206;-73
2022/09/20 10:02:53;;;;;;;4.88;1.90;;;19.00;97.20;;;;;;1713449;28;20214;-74
2022/09/20 10:03:55;;;;;;;5.57;1.70;;;19.10;97.20;;;;;;1713352;28;20353;-74